Menu Close Menu
Station Historical Data
Daily Summary for December 1, 2017 Units:  English    Metric   Both
« Previous Day
Next Day »
Daily Weekly Monthly Yearly Custom
  High: Low: Average:
Temperature: 63.9 °F 49.2 °F 57.1 °F
Dew Point: 57.5 °F 47.3 °F 53.6 °F
Humidity: 94% 74% 88%
Wind Speed: 3.5mph 0.0mph 0.3mph
Wind Gust: 3.5mph - -
Wind- - South
Pressure: 30.20 in 30.11 in -
Precipitation: 0.00 in    
Historical Graphs
 
 
Tabular Data for December 1, 2017
Time Temperature Dew Point Pressure Wind Wind Speed Wind Gust Humidity Rainfall Rate (Hourly) solar Conditions
00:00 59.4 °F 57.4 °F 30.13 in Calm     93% 0.00 in WeatherDisplay:10.37 W/m2 OVC
00:05 59.5 °F 57.4 °F 30.13 in Calm     93% 0.00 in WeatherDisplay:10.37 W/m2 OVC
00:10 59.5 °F 57.5 °F 30.13 in Calm     93% 0.00 in WeatherDisplay:10.37 W/m2 OVC
00:15 59.4 °F 57.4 °F 30.13 in Calm     93% 0.00 in WeatherDisplay:10.37 W/m2 OVC
00:20 59.4 °F 57.4 °F 30.13 in Calm     93% 0.00 in WeatherDisplay:10.37 W/m2 OVC
00:25 59.3 °F 57.3 °F 30.13 in Calm     93% 0.00 in WeatherDisplay:10.37 W/m2 OVC
00:30 59.3 °F 57.3 °F 30.13 in Calm     93% 0.00 in WeatherDisplay:10.37 W/m2 OVC
00:35 59.2 °F 57.2 °F 30.13 in Calm     93% 0.00 in WeatherDisplay:10.37 W/m2 OVC
00:45 59.1 °F 57.1 °F 30.12 in Calm     93% 0.00 in WeatherDisplay:10.37 W/m2 OVC
00:50 59.0 °F 57.0 °F 30.12 in Calm     93% 0.00 in WeatherDisplay:10.37 W/m2 OVC
00:56 59.0 °F 57.0 °F 30.12 in Calm     93% 0.00 in WeatherDisplay:10.37 W/m2 OVC
01:06 58.8 °F 56.8 °F 30.12 in Calm     93% 0.00 in WeatherDisplay:10.37 W/m2 OVC
01:16 58.8 °F 56.8 °F 30.12 in Calm     93% 0.00 in WeatherDisplay:10.37 W/m2 OVC
01:26 59.0 °F 57.3 °F 30.13 in Calm     94% 0.00 in WeatherDisplay:10.37 W/m2 OVC
01:31 59.0 °F 57.3 °F 30.13 in West 1.2 mph 1.2 mph 94% 0.00 in WeatherDisplay:10.37 W/m2 OVC
01:36 59.1 °F 57.4 °F 30.13 in West 1.2 mph   94% 0.00 in WeatherDisplay:10.37 W/m2 OVC
01:41 59.0 °F 57.0 °F 30.13 in WNW 1.2 mph   93% 0.00 in WeatherDisplay:10.37 W/m2 OVC
01:47 58.9 °F 56.9 °F 30.13 in SSW 2.3 mph 2.3 mph 93% 0.00 in WeatherDisplay:10.37 W/m2 OVC
01:50 58.9 °F 56.9 °F 30.13 in Calm   1.0 mph 93% 0.00 in WeatherDisplay:10.37 W/m2 OVC
01:55 58.8 °F 56.8 °F 30.13 in Calm     93% 0.00 in WeatherDisplay:10.37 W/m2 OVC
02:00 58.7 °F 56.7 °F 30.13 in Calm     93% 0.00 in WeatherDisplay:10.37 W/m2 OVC
02:05 58.6 °F 56.6 °F 30.13 in Calm     93% 0.00 in WeatherDisplay:10.37 W/m2 OVC
02:10 58.4 °F 56.4 °F 30.13 in Calm     93% 0.00 in WeatherDisplay:10.37 W/m2 OVC
02:15 58.2 °F 56.2 °F 30.14 in Calm     93% 0.00 in WeatherDisplay:10.37 W/m2 OVC
02:20 58.0 °F 56.0 °F 30.13 in Calm     93% 0.00 in WeatherDisplay:10.37 W/m2 OVC
02:25 57.8 °F 55.8 °F 30.13 in Calm     93% 0.00 in WeatherDisplay:10.37 W/m2 OVC
02:30 57.7 °F 55.7 °F 30.13 in Calm     93% 0.00 in WeatherDisplay:10.37 W/m2 OVC
02:35 57.6 °F 55.6 °F 30.13 in Calm     93% 0.00 in WeatherDisplay:10.37 W/m2 OVC
02:46 57.6 °F 55.6 °F 30.13 in Calm     93% 0.00 in WeatherDisplay:10.37 W/m2 OVC
02:51 57.7 °F 55.7 °F 30.13 in Calm     93% 0.00 in WeatherDisplay:10.37 W/m2 SCT
02:56 57.8 °F 55.8 °F 30.13 in Calm     93% 0.00 in WeatherDisplay:10.37 W/m2 SCT
03:01 57.8 °F 55.8 °F 30.13 in Calm     93% 0.00 in WeatherDisplay:10.37 W/m2 SCT
03:06 57.8 °F 55.8 °F 30.13 in Calm     93% 0.00 in WeatherDisplay:10.37 W/m2 SCT
03:11 57.8 °F 55.8 °F 30.13 in Calm     93% 0.00 in WeatherDisplay:10.37 W/m2 SCT
03:16 57.8 °F 55.8 °F 30.13 in Calm     93% 0.00 in WeatherDisplay:10.37 W/m2 SCT
03:21 57.9 °F 55.9 °F 30.13 in Calm     93% 0.00 in WeatherDisplay:10.37 W/m2 SCT
03:27 57.8 °F 55.8 °F 30.13 in Calm     93% 0.00 in WeatherDisplay:10.37 W/m2 SCT
03:32 57.8 °F 55.8 °F 30.13 in Calm     93% 0.00 in WeatherDisplay:10.37 W/m2 SCT
03:37 57.7 °F 55.7 °F 30.13 in Calm     93% 0.00 in WeatherDisplay:10.37 W/m2 SCT
03:42 57.5 °F 55.5 °F 30.12 in Calm     93% 0.00 in WeatherDisplay:10.37 W/m2 SCT
03:47 57.3 °F 55.3 °F 30.12 in Calm     93% 0.00 in WeatherDisplay:10.37 W/m2 SCT
03:52 57.1 °F 55.1 °F 30.12 in Calm     93% 0.00 in WeatherDisplay:10.37 W/m2 OVC
03:57 56.9 °F 54.9 °F 30.12 in Calm     93% 0.00 in WeatherDisplay:10.37 W/m2 OVC
04:08 56.6 °F 54.6 °F 30.12 in Calm     93% 0.00 in WeatherDisplay:10.37 W/m2 OVC
04:13 56.5 °F 54.5 °F 30.12 in Calm     93% 0.00 in WeatherDisplay:10.37 W/m2 OVC
04:18 56.3 °F 54.3 °F 30.12 in Calm     93% 0.00 in WeatherDisplay:10.37 W/m2 OVC
04:19 56.2 °F 54.2 °F 30.12 in Calm     93% 0.00 in WeatherDisplay:10.37 W/m2
04:22 56.2 °F 54.2 °F 30.12 in Calm     93% 0.00 in WeatherDisplay:10.37 W/m2 FEW
04:24 56.2 °F 54.2 °F 30.12 in Calm     93% 0.00 in WeatherDisplay:10.37 W/m2
04:27 56.1 °F 54.1 °F 30.12 in Calm     93% 0.00 in WeatherDisplay:10.37 W/m2 FEW
04:29 56.1 °F 54.1 °F 30.12 in Calm     93% 0.00 in WeatherDisplay:10.37 W/m2
04:33 56.0 °F 54.0 °F 30.12 in Calm     93% 0.00 in WeatherDisplay:10.37 W/m2 CLR
04:34 56.1 °F 54.1 °F 30.12 in Calm     93% 0.00 in WeatherDisplay:10.37 W/m2
04:38 56.0 °F 54.0 °F 30.12 in Calm     93% 0.00 in WeatherDisplay:10.37 W/m2 CLR
04:39 56.0 °F 54.0 °F 30.12 in Calm     93% 0.00 in WeatherDisplay:10.37 W/m2
04:43 55.9 °F 53.9 °F 30.12 in Calm     93% 0.00 in WeatherDisplay:10.37 W/m2 CLR
04:44 55.8 °F 53.8 °F 30.12 in Calm     93% 0.00 in WeatherDisplay:10.37 W/m2
04:49 55.6 °F 53.6 °F 30.12 in Calm     93% 0.00 in WeatherDisplay:10.37 W/m2
04:53 55.6 °F 53.6 °F 30.12 in Calm     93% 0.00 in WeatherDisplay:10.37 W/m2 CLR
04:54 55.5 °F 53.5 °F 30.12 in Calm     93% 0.00 in WeatherDisplay:10.37 W/m2
04:58 55.3 °F 53.3 °F 30.12 in Calm     93% 0.00 in WeatherDisplay:10.37 W/m2 CLR
04:59 55.3 °F 53.3 °F 30.12 in Calm     93% 0.00 in WeatherDisplay:10.37 W/m2
05:03 55.1 °F 53.1 °F 30.12 in Calm     93% 0.00 in WeatherDisplay:10.37 W/m2 CLR
05:08 55.1 °F 53.1 °F 30.12 in Calm     93% 0.00 in WeatherDisplay:10.37 W/m2 CLR
05:09 55.1 °F 53.1 °F 30.11 in Calm     93% 0.00 in WeatherDisplay:10.37 W/m2
05:13 55.0 °F 53.0 °F 30.11 in Calm     93% 0.00 in WeatherDisplay:10.37 W/m2 CLR
05:14 54.9 °F 52.9 °F 30.11 in Calm     93% 0.00 in WeatherDisplay:10.37 W/m2
05:18 55.0 °F 53.3 °F 30.12 in Calm     94% 0.00 in WeatherDisplay:10.37 W/m2 CLR
05:19 54.9 °F 52.9 °F 30.12 in Calm     93% 0.00 in WeatherDisplay:10.37 W/m2
05:24 54.9 °F 53.2 °F 30.12 in Calm     94% 0.00 in WeatherDisplay:10.37 W/m2
05:29 54.8 °F 53.1 °F 30.12 in Calm     94% 0.00 in WeatherDisplay:10.37 W/m2 CLR
05:34 54.8 °F 53.1 °F 30.12 in Calm     94% 0.00 in WeatherDisplay:10.37 W/m2
05:39 54.7 °F 53.0 °F 30.12 in Calm     94% 0.00 in WeatherDisplay:10.37 W/m2 CLR
05:44 54.4 °F 52.4 °F 30.12 in Calm     93% 0.00 in WeatherDisplay:10.37 W/m2 CLR
05:49 54.1 °F 52.1 °F 30.12 in Calm     93% 0.00 in WeatherDisplay:10.37 W/m2 CLR
05:54 53.9 °F 51.9 °F 30.12 in Calm     93% 0.00 in WeatherDisplay:10.37 W/m2 FEW
05:59 54.0 °F 52.3 °F 30.12 in Calm     94% 0.00 in WeatherDisplay:10.37 W/m2 FEW
06:04 54.1 °F 52.4 °F 30.13 in Calm     94% 0.00 in WeatherDisplay:10.37 W/m2 SCT
06:09 54.2 °F 52.5 °F 30.13 in Calm     94% 0.00 in WeatherDisplay:10.37 W/m2 SCT
06:14 54.5 °F 52.8 °F 30.13 in Calm     94% 0.00 in WeatherDisplay:10.37 W/m2 BKN
06:19 54.8 °F 53.1 °F 30.13 in SSW 1.2 mph   94% 0.00 in WeatherDisplay:10.37 W/m2 BKN
06:34 55.2 °F 53.5 °F 30.13 in Calm   1.0 mph 94% 0.00 in WeatherDisplay:10.37 W/m2
06:35 55.2 °F 53.5 °F 30.13 in WNW 1.2 mph   94% 0.00 in WeatherDisplay:10.37 W/m2 OVC
06:39 55.2 °F 53.5 °F 30.14 in Calm     94% 0.00 in WeatherDisplay:10.37 W/m2
06:40 55.2 °F 53.5 °F 30.14 in Calm     94% 0.00 in WeatherDisplay:10.37 W/m2 OVC
06:42 55.2 °F 53.5 °F 30.14 in WSW 1.2 mph   94% 0.00 in WeatherDisplay:10.37 W/m2 OVC
06:44 55.3 °F 53.6 °F 30.14 in Calm     94% 0.00 in WeatherDisplay:10.37 W/m2
06:47 55.3 °F 53.6 °F 30.14 in Calm     94% 0.00 in WeatherDisplay:10.37 W/m2 OVC
06:49 55.3 °F 53.6 °F 30.14 in Calm     94% 0.00 in WeatherDisplay:10.37 W/m2
06:52 55.3 °F 53.6 °F 30.15 in Calm     94% 0.00 in WeatherDisplay:10.37 W/m2 OVC
06:57 55.4 °F 53.7 °F 30.15 in West 1.2 mph   94% 0.00 in WeatherDisplay:10.37 W/m2 OVC
06:59 55.4 °F 53.7 °F 30.15 in Calm   1.0 mph 94% 0.00 in WeatherDisplay:10.37 W/m2
07:02 55.4 °F 53.7 °F 30.15 in West 1.2 mph   94% 0.00 in WeatherDisplay:10.37 W/m2 OVC
07:04 55.4 °F 53.7 °F 30.15 in Calm     94% 0.00 in WeatherDisplay:10.37 W/m2
07:07 55.4 °F 53.7 °F 30.15 in West 1.2 mph 1.2 mph 94% 0.00 in WeatherDisplay:10.37 W/m2 OVC
07:09 55.4 °F 53.7 °F 30.15 in Calm   1.0 mph 94% 0.00 in WeatherDisplay:10.37 W/m2
07:12 55.4 °F 53.7 °F 30.15 in SE 1.2 mph   94% 0.00 in WeatherDisplay:10.37 W/m2 OVC
07:14 55.4 °F 53.7 °F 30.15 in Calm     94% 0.00 in WeatherDisplay:10.37 W/m2
07:19 55.4 °F 53.7 °F 30.16 in Calm     94% 0.00 in WeatherDisplay:10.37 W/m2
07:22 55.4 °F 53.7 °F 30.16 in Calm     94% 0.00 in WeatherDisplay:10.37 W/m2 OVC
07:24 55.4 °F 53.7 °F 30.16 in Calm     94% 0.00 in WeatherDisplay:10.37 W/m2
07:28 55.4 °F 53.7 °F 30.16 in Calm     94% 0.00 in WeatherDisplay:10.37 W/m2 OVC
07:29 55.4 °F 53.7 °F 30.16 in Calm     94% 0.00 in WeatherDisplay:10.37 W/m2
07:33 55.4 °F 53.7 °F 30.16 in Calm     94% 0.00 in WeatherDisplay:10.37 W/m2 OVC
07:34 55.4 °F 53.7 °F 30.16 in Calm     94% 0.00 in WeatherDisplay:10.37 W/m2
07:38 55.4 °F 53.7 °F 30.16 in Calm     94% 0.00 in WeatherDisplay:10.37 W/m2 OVC
07:39 55.4 °F 53.7 °F 30.16 in Calm     94% 0.00 in WeatherDisplay:10.37 W/m2
07:44 55.4 °F 53.7 °F 30.16 in Calm     94% 0.00 in WeatherDisplay:10.37 W/m2
07:49 55.4 °F 53.7 °F 30.16 in Calm     94% 0.00 in WeatherDisplay:10.37 W/m2
07:53 55.4 °F 53.7 °F 30.16 in Calm     94% 0.00 in WeatherDisplay:10.37 W/m2 OVC
07:54 55.4 °F 53.7 °F 30.17 in Calm     94% 0.00 in WeatherDisplay:10.37 W/m2
07:58 55.4 °F 53.7 °F 30.17 in Calm     94% 0.00 in WeatherDisplay:10.37 W/m2 OVC
07:59 55.5 °F 53.8 °F 30.17 in Calm     94% 0.00 in WeatherDisplay:10.37 W/m2
08:03 55.4 °F 53.7 °F 30.17 in Calm     94% 0.00 in WeatherDisplay:10.37 W/m2 OVC
08:04 55.4 °F 53.7 °F 30.17 in Calm     94% 0.00 in WeatherDisplay:10.37 W/m2
08:08 55.4 °F 53.7 °F 30.17 in Calm     94% 0.00 in WeatherDisplay:10.37 W/m2 OVC
08:09 55.5 °F 53.8 °F 30.17 in Calm     94% 0.00 in WeatherDisplay:10.37 W/m2
08:14 55.5 °F 53.8 °F 30.17 in Calm   1.0 mph 94% 0.00 in WeatherDisplay:10.37 W/m2
08:18 55.5 °F 53.8 °F 30.17 in ESE 1.2 mph   94% 0.00 in WeatherDisplay:10.37 W/m2 OVC
08:19 55.6 °F 53.9 °F 30.17 in Calm     94% 0.00 in WeatherDisplay:10.37 W/m2
08:23 55.6 °F 53.9 °F 30.17 in Calm     94% 0.00 in WeatherDisplay:10.37 W/m2 OVC
08:24 55.6 °F 53.9 °F 30.17 in Calm     94% 0.00 in WeatherDisplay:10.37 W/m2
08:29 55.7 °F 54.0 °F 30.18 in Calm     94% 0.00 in WeatherDisplay:10.37 W/m2 OVC
08:34 55.7 °F 54.0 °F 30.18 in Calm   1.0 mph 94% 0.00 in WeatherDisplay:10.37 W/m2
08:39 55.8 °F 54.1 °F 30.18 in Calm     94% 0.00 in WeatherDisplay:10.37 W/m2
08:44 55.9 °F 54.2 °F 30.18 in SSE 1.2 mph   94% 0.00 in WeatherDisplay:10.37 W/m2 OVC
08:49 56.0 °F 54.3 °F 30.18 in Calm     94% 0.00 in WeatherDisplay:10.37 W/m2 OVC
08:54 56.1 °F 54.4 °F 30.18 in Calm     94% 0.00 in WeatherDisplay:10.37 W/m2 OVC
08:59 56.1 °F 54.4 °F 30.18 in Calm     94% 0.00 in WeatherDisplay:10.37 W/m2 OVC
09:04 56.2 °F 54.5 °F 30.18 in Calm     94% 0.00 in WeatherDisplay:10.37 W/m2
09:09 56.2 °F 54.2 °F 30.18 in Calm     93% 0.00 in WeatherDisplay:10.37 W/m2 OVC
09:14 56.2 °F 54.2 °F 30.18 in Calm     93% 0.00 in WeatherDisplay:10.37 W/m2 OVC
09:19 56.3 °F 54.3 °F 30.18 in Calm     93% 0.00 in WeatherDisplay:10.37 W/m2 OVC
09:29 56.4 °F 54.4 °F 30.18 in Calm     93% 0.00 in WeatherDisplay:10.37 W/m2
09:30 56.4 °F 54.4 °F 30.18 in Calm     93% 0.00 in WeatherDisplay:10.37 W/m2 OVC
09:34 56.4 °F 54.4 °F 30.18 in Calm     93% 0.00 in WeatherDisplay:10.37 W/m2
09:35 56.5 °F 54.5 °F 30.18 in Calm     93% 0.00 in WeatherDisplay:10.37 W/m2 OVC
09:39 56.5 °F 54.5 °F 30.18 in Calm   1.0 mph 93% 0.00 in WeatherDisplay:10.37 W/m2
09:40 56.5 °F 54.5 °F 30.18 in Calm   1.0 mph 93% 0.00 in WeatherDisplay:10.37 W/m2 OVC
09:44 56.5 °F 54.2 °F 30.18 in Calm   1.0 mph 92% 0.00 in WeatherDisplay:10.37 W/m2
09:45 56.5 °F 54.2 °F 30.18 in WSW 1.2 mph   92% 0.00 in WeatherDisplay:10.37 W/m2 OVC
09:49 56.5 °F 54.2 °F 30.18 in Calm     92% 0.00 in WeatherDisplay:10.37 W/m2
09:54 56.7 °F 54.4 °F 30.19 in Calm     92% 0.00 in WeatherDisplay:10.37 W/m2
09:55 56.7 °F 54.4 °F 30.19 in Calm     92% 0.00 in WeatherDisplay:10.37 W/m2 OVC
09:59 56.8 °F 54.2 °F 30.19 in Calm     91% 0.00 in WeatherDisplay:10.37 W/m2
10:00 56.8 °F 54.2 °F 30.19 in Calm     91% 0.00 in WeatherDisplay:10.37 W/m2 OVC
10:04 56.9 °F 54.3 °F 30.19 in Calm     91% 0.00 in WeatherDisplay:10.37 W/m2
10:05 56.9 °F 54.3 °F 30.19 in Calm     91% 0.00 in WeatherDisplay:10.37 W/m2 OVC
10:09 57.1 °F 54.5 °F 30.19 in Calm     91% 0.00 in WeatherDisplay:10.37 W/m2
10:10 57.1 °F 54.5 °F 30.19 in Calm     91% 0.00 in WeatherDisplay:10.37 W/m2 OVC
10:14 57.2 °F 54.6 °F 30.19 in Calm     91% 0.00 in WeatherDisplay:10.37 W/m2
10:19 57.3 °F 54.7 °F 30.19 in Calm     91% 0.00 in WeatherDisplay:10.37 W/m2
10:20 57.3 °F 54.4 °F 30.19 in Calm     90% 0.00 in WeatherDisplay:10.37 W/m2 OVC
10:24 57.3 °F 54.4 °F 30.20 in Calm     90% 0.00 in WeatherDisplay:10.37 W/m2
10:29 57.4 °F 54.5 °F 30.19 in Calm     90% 0.00 in WeatherDisplay:10.37 W/m2
10:31 57.4 °F 54.5 °F 30.20 in Calm     90% 0.00 in WeatherDisplay:10.37 W/m2 OVC
10:34 57.5 °F 54.6 °F 30.20 in Calm     90% 0.00 in WeatherDisplay:10.37 W/m2
10:36 57.5 °F 54.6 °F 30.20 in Calm     90% 0.00 in WeatherDisplay:10.37 W/m2 OVC
10:39 57.6 °F 54.7 °F 30.19 in Calm     90% 0.00 in WeatherDisplay:10.37 W/m2
10:41 57.7 °F 54.8 °F 30.20 in Calm     90% 0.00 in WeatherDisplay:10.37 W/m2 OVC
10:44 57.8 °F 54.6 °F 30.19 in Calm     89% 0.00 in WeatherDisplay:10.37 W/m2
10:49 57.9 °F 54.7 °F 30.19 in Calm   1.0 mph 89% 0.00 in WeatherDisplay:10.37 W/m2
10:51 57.9 °F 54.7 °F 30.19 in East 1.2 mph 1.2 mph 89% 0.00 in WeatherDisplay:10.37 W/m2 OVC
10:54 58.0 °F 54.8 °F 30.19 in Calm   1.0 mph 89% 0.00 in WeatherDisplay:10.37 W/m2
10:59 58.1 °F 54.9 °F 30.19 in Calm   1.0 mph 89% 0.00 in WeatherDisplay:10.37 W/m2
11:01 58.1 °F 54.9 °F 30.19 in ESE 1.2 mph   89% 0.00 in WeatherDisplay:10.37 W/m2 OVC
11:04 58.2 °F 55.0 °F 30.19 in Calm   1.0 mph 89% 0.00 in WeatherDisplay:10.37 W/m2
11:06 58.2 °F 55.0 °F 30.19 in SE 1.2 mph   89% 0.00 in WeatherDisplay:10.37 W/m2 OVC
11:09 58.3 °F 55.1 °F 30.19 in Calm   1.0 mph 89% 0.00 in WeatherDisplay:10.37 W/m2
11:11 58.3 °F 54.8 °F 30.19 in WSW 1.2 mph   88% 0.00 in WeatherDisplay:10.37 W/m2 OVC
11:14 58.2 °F 55.0 °F 30.19 in Calm   1.0 mph 89% 0.00 in WeatherDisplay:10.37 W/m2
11:16 58.3 °F 55.1 °F 30.19 in NW 1.2 mph 1.2 mph 89% 0.00 in WeatherDisplay:10.37 W/m2 OVC
11:19 58.3 °F 55.1 °F 30.19 in Calm   2.0 mph 89% 0.00 in WeatherDisplay:10.37 W/m2
11:21 58.3 °F 55.1 °F 30.19 in WNW 2.3 mph   89% 0.00 in WeatherDisplay:10.37 W/m2 OVC
11:24 58.3 °F 55.1 °F 30.19 in Calm   1.0 mph 89% 0.00 in WeatherDisplay:10.37 W/m2
11:26 58.3 °F 54.8 °F 30.19 in NW 2.3 mph   88% 0.00 in WeatherDisplay:10.37 W/m2 OVC
11:29 58.2 °F 54.7 °F 30.18 in Calm     88% 0.00 in WeatherDisplay:10.37 W/m2
11:31 58.2 °F 54.7 °F 30.18 in NNW 1.2 mph 1.2 mph 88% 0.00 in WeatherDisplay:10.37 W/m2 OVC
11:34 58.2 °F 54.7 °F 30.18 in SW 1.0 mph 2.0 mph 88% 0.00 in WeatherDisplay:10.37 W/m2
11:39 58.3 °F 54.8 °F 30.18 in Calm     88% 0.00 in WeatherDisplay:10.37 W/m2
11:42 58.3 °F 54.8 °F 30.18 in South 2.3 mph 2.3 mph 88% 0.00 in WeatherDisplay:10.37 W/m2 OVC
11:44 58.3 °F 54.8 °F 30.18 in Calm   1.0 mph 88% 0.00 in WeatherDisplay:10.37 W/m2
11:47 58.4 °F 54.9 °F 30.18 in SSE 1.2 mph   88% 0.00 in WeatherDisplay:10.37 W/m2 OVC
11:49 58.4 °F 54.9 °F 30.18 in Calm   2.0 mph 88% 0.00 in WeatherDisplay:10.37 W/m2
11:52 58.4 °F 54.9 °F 30.18 in South 2.3 mph   88% 0.00 in WeatherDisplay:10.37 W/m2 OVC
11:54 58.4 °F 54.9 °F 30.18 in Calm     88% 0.00 in WeatherDisplay:10.37 W/m2
11:57 58.4 °F 54.9 °F 30.18 in SSW 2.3 mph   88% 0.00 in WeatherDisplay:10.37 W/m2 OVC
11:59 58.5 °F 55.0 °F 30.18 in Calm   1.0 mph 88% 0.00 in WeatherDisplay:10.37 W/m2
12:02 58.5 °F 55.0 °F 30.17 in SSE 1.2 mph   88% 0.00 in WeatherDisplay:10.37 W/m2 OVC
12:04 58.6 °F 55.1 °F 30.18 in Calm   1.0 mph 88% 0.00 in WeatherDisplay:10.37 W/m2
12:07 58.6 °F 55.1 °F 30.18 in SSE 1.2 mph   88% 0.00 in WeatherDisplay:10.37 W/m2 OVC
12:09 58.7 °F 55.2 °F 30.17 in Calm   1.0 mph 88% 0.00 in WeatherDisplay:10.37 W/m2
12:12 58.8 °F 55.3 °F 30.17 in SW 1.2 mph   88% 0.00 in WeatherDisplay:10.37 W/m2 OVC
12:14 58.8 °F 54.9 °F 30.17 in Calm   1.0 mph 87% 0.00 in WeatherDisplay:10.37 W/m2
12:17 58.8 °F 54.9 °F 30.17 in WSW 1.2 mph 1.2 mph 87% 0.00 in WeatherDisplay:10.37 W/m2 OVC
12:19 58.9 °F 55.0 °F 30.17 in Calm   1.0 mph 87% 0.00 in WeatherDisplay:10.37 W/m2
12:24 59.0 °F 55.1 °F 30.17 in Calm   1.0 mph 87% 0.00 in WeatherDisplay:10.37 W/m2
12:29 59.1 °F 55.2 °F 30.17 in Calm   2.0 mph 87% 0.00 in WeatherDisplay:10.37 W/m2
12:30 59.1 °F 55.2 °F 30.17 in SE 2.3 mph   87% 0.00 in WeatherDisplay:10.37 W/m2 OVC
12:34 59.1 °F 54.9 °F 30.16 in Calm   1.0 mph 86% 0.00 in WeatherDisplay:10.37 W/m2
12:35 59.1 °F 54.9 °F 30.16 in South 2.3 mph   86% 0.00 in WeatherDisplay:10.37 W/m2 OVC
12:39 59.3 °F 55.1 °F 30.16 in Calm   3.0 mph 86% 0.00 in WeatherDisplay:10.37 W/m2
12:40 59.3 °F 55.1 °F 30.17 in SE 3.5 mph 3.5 mph 86% 0.00 in WeatherDisplay:10.37 W/m2 OVC
12:44 59.4 °F 55.2 °F 30.16 in Calm   1.0 mph 86% 0.00 in WeatherDisplay:10.37 W/m2
12:45 59.5 °F 55.3 °F 30.16 in SSW 3.5 mph   86% 0.00 in WeatherDisplay:10.37 W/m2 OVC
12:49 59.7 °F 55.2 °F 30.16 in Calm   1.0 mph 85% 0.00 in WeatherDisplay:10.37 W/m2
12:50 59.7 °F 55.5 °F 30.16 in WSW 3.5 mph 3.5 mph 86% 0.00 in WeatherDisplay:10.37 W/m2 OVC
12:54 59.8 °F 55.0 °F 30.16 in Calm   1.0 mph 84% 0.00 in WeatherDisplay:10.37 W/m2
12:59 59.9 °F 55.1 °F 30.16 in Calm     84% 0.00 in WeatherDisplay:10.37 W/m2
13:00 59.9 °F 55.1 °F 30.16 in NNE 1.2 mph   84% 0.00 in WeatherDisplay:10.37 W/m2 OVC
13:04 60.2 °F 55.7 °F 30.16 in Calm     85% 0.00 in WeatherDisplay:10.37 W/m2
13:05 60.2 °F 55.7 °F 30.16 in NE 1.2 mph   85% 0.00 in WeatherDisplay:10.37 W/m2 OVC
13:09 60.3 °F 55.4 °F 30.16 in Calm   1.0 mph 84% 0.00 in WeatherDisplay:10.37 W/m2
13:10 60.3 °F 55.4 °F 30.16 in ENE 1.2 mph   84% 0.00 in WeatherDisplay:10.37 W/m2 OVC
13:14 60.5 °F 55.6 °F 30.16 in Calm   1.0 mph 84% 0.00 in WeatherDisplay:10.37 W/m2
13:15 60.5 °F 55.6 °F 30.16 in ESE 1.2 mph   84% 0.00 in WeatherDisplay:10.37 W/m2 OVC
13:19 60.5 °F 55.0 °F 30.16 in Calm   1.0 mph 82% 0.00 in WeatherDisplay:10.37 W/m2
13:21 60.5 °F 55.3 °F 30.16 in West 1.2 mph 1.2 mph 83% 0.00 in WeatherDisplay:10.37 W/m2 OVC
13:24 60.4 °F 54.9 °F 30.16 in ESE 1.0 mph 1.0 mph 82% 0.00 in WeatherDisplay:10.37 W/m2
13:26 60.4 °F 54.9 °F 30.16 in ENE 1.2 mph 1.2 mph 82% 0.00 in WeatherDisplay:10.37 W/m2 OVC
13:29 60.3 °F 55.1 °F 30.16 in Calm   1.0 mph 83% 0.00 in WeatherDisplay:10.37 W/m2
13:31 60.3 °F 55.1 °F 30.15 in NNE 1.2 mph   83% 0.00 in WeatherDisplay:10.37 W/m2 OVC
13:34 60.4 °F 55.2 °F 30.16 in Calm   1.0 mph 83% 0.00 in WeatherDisplay:10.37 W/m2
13:36 60.4 °F 54.9 °F 30.16 in NNW 2.3 mph 2.3 mph 82% 0.00 in WeatherDisplay:10.37 W/m2 OVC
13:39 60.4 °F 54.9 °F 30.15 in Calm   2.0 mph 82% 0.00 in WeatherDisplay:10.37 W/m2
13:41 60.4 °F 55.2 °F 30.15 in SE 2.3 mph 2.3 mph 83% 0.00 in WeatherDisplay:10.37 W/m2 OVC
13:44 60.5 °F 55.0 °F 30.15 in Calm   1.0 mph 82% 0.00 in WeatherDisplay:10.37 W/m2
13:46 60.6 °F 55.1 °F 30.15 in ESE 2.3 mph   82% 0.00 in WeatherDisplay:10.37 W/m2 OVC
13:49 60.9 °F 55.4 °F 30.15 in Calm   2.0 mph 82% 0.00 in WeatherDisplay:10.37 W/m2
13:52 61.0 °F 55.5 °F 30.15 in ESE 2.3 mph 2.3 mph 82% 0.00 in WeatherDisplay:10.37 W/m2 OVC
13:54 61.2 °F 55.3 °F 30.15 in Calm   2.0 mph 81% 0.00 in WeatherDisplay:10.37 W/m2
13:59 61.3 °F 55.1 °F 30.15 in ESE 1.0 mph 1.0 mph 80% 0.00 in WeatherDisplay:10.37 W/m2
14:02 61.3 °F 55.1 °F 30.15 in SE 2.3 mph 2.3 mph 80% 0.00 in WeatherDisplay:10.37 W/m2 CLR
14:04 61.1 °F 55.2 °F 30.15 in Calm   2.0 mph 81% 0.00 in WeatherDisplay:10.37 W/m2
14:09 61.2 °F 55.3 °F 30.14 in Calm   1.0 mph 81% 0.00 in WeatherDisplay:10.37 W/m2
14:12 61.3 °F 55.4 °F 30.15 in SW 2.3 mph 2.3 mph 81% 0.00 in WeatherDisplay:10.37 W/m2 BKN
14:14 61.5 °F 55.3 °F 30.15 in Calm   1.0 mph 80% 0.00 in WeatherDisplay:10.37 W/m2
14:19 61.7 °F 55.5 °F 30.14 in Calm   1.0 mph 80% 0.00 in WeatherDisplay:10.37 W/m2
14:22 61.8 °F 55.2 °F 30.14 in North 1.2 mph   79% 0.00 in WeatherDisplay:10.37 W/m2 SCT
14:24 61.9 °F 55.3 °F 30.14 in Calm   1.0 mph 79% 0.00 in WeatherDisplay:10.37 W/m2
14:29 62.0 °F 55.4 °F 30.14 in Calm   2.0 mph 79% 0.00 in WeatherDisplay:10.37 W/m2
14:33 62.0 °F 55.1 °F 30.14 in North 2.3 mph 2.3 mph 78% 0.00 in WeatherDisplay:10.37 W/m2 SCT
14:34 62.1 °F 55.2 °F 30.14 in Calm   2.0 mph 78% 0.00 in WeatherDisplay:10.37 W/m2
14:38 62.2 °F 55.3 °F 30.14 in East 2.3 mph   78% 0.00 in WeatherDisplay:10.37 W/m2 SCT
14:39 62.3 °F 55.4 °F 30.14 in Calm   1.0 mph 78% 0.00 in WeatherDisplay:10.37 W/m2
14:43 62.6 °F 56.0 °F 30.14 in East 2.3 mph   79% 0.00 in WeatherDisplay:10.37 W/m2 SCT
14:44 62.9 °F 55.9 °F 30.14 in Calm     78% 0.00 in WeatherDisplay:10.37 W/m2
14:48 63.2 °F 55.9 °F 30.14 in East 1.2 mph   77% 0.00 in WeatherDisplay:10.37 W/m2 SCT
14:49 63.4 °F 56.4 °F 30.14 in Calm     78% 0.00 in WeatherDisplay:10.37 W/m2
14:54 63.8 °F 55.7 °F 30.14 in East 1.0 mph 2.0 mph 75% 0.00 in WeatherDisplay:10.37 W/m2
14:59 63.9 °F 55.4 °F 30.14 in Calm   2.0 mph 74% 0.00 in WeatherDisplay:10.37 W/m2
15:03 63.8 °F 55.7 °F 30.14 in South 2.3 mph   75% 0.00 in WeatherDisplay:10.37 W/m2 SCT
15:04 63.8 °F 55.7 °F 30.14 in SSE 1.0 mph 1.0 mph 75% 0.00 in WeatherDisplay:10.37 W/m2
15:08 63.8 °F 55.7 °F 30.14 in SE 1.2 mph 1.2 mph 75% 0.00 in WeatherDisplay:10.37 W/m2 SCT
15:09 63.8 °F 55.7 °F 30.14 in Calm   1.0 mph 75% 0.00 in WeatherDisplay:10.37 W/m2
15:13 63.7 °F 56.0 °F 30.13 in SE 1.2 mph   76% 0.00 in WeatherDisplay:10.37 W/m2 SCT
15:14 63.8 °F 55.7 °F 30.14 in Calm     75% 0.00 in WeatherDisplay:10.37 W/m2
15:18 63.7 °F 55.6 °F 30.13 in SE 1.2 mph 1.2 mph 75% 0.00 in WeatherDisplay:10.37 W/m2 SCT
15:19 63.7 °F 55.6 °F 30.13 in Calm   1.0 mph 75% 0.00 in WeatherDisplay:10.37 W/m2
15:24 63.7 °F 56.0 °F 30.13 in Calm     76% 0.00 in WeatherDisplay:10.37 W/m2
15:26 63.7 °F 56.0 °F 30.13 in ESE 1.2 mph   76% 0.00 in WeatherDisplay:10.37 W/m2 SCT
15:29 63.7 °F 55.6 °F 30.13 in Calm     75% 0.00 in WeatherDisplay:10.37 W/m2
15:34 63.9 °F 56.2 °F 30.13 in Calm     76% 0.00 in WeatherDisplay:10.37 W/m2
15:36 63.9 °F 56.2 °F 30.13 in Calm     76% 0.00 in WeatherDisplay:10.37 W/m2 SCT
15:39 63.9 °F 55.4 °F 30.13 in ESE 1.0 mph 1.0 mph 74% 0.00 in WeatherDisplay:10.37 W/m2
15:41 63.9 °F 55.8 °F 30.13 in ESE 1.2 mph   75% 0.00 in WeatherDisplay:10.37 W/m2 SCT
15:44 63.7 °F 55.6 °F 30.13 in Calm   1.0 mph 75% 0.00 in WeatherDisplay:10.37 W/m2
15:46 63.7 °F 55.6 °F 30.13 in ESE 1.2 mph 1.2 mph 75% 0.00 in WeatherDisplay:10.37 W/m2 SCT
15:49 63.6 °F 55.5 °F 30.13 in Calm   1.0 mph 75% 0.00 in WeatherDisplay:10.37 W/m2
15:51 63.6 °F 55.5 °F 30.13 in ESE 1.2 mph   75% 0.00 in WeatherDisplay:10.37 W/m2 SCT
15:54 63.6 °F 55.5 °F 30.13 in Calm     75% 0.00 in WeatherDisplay:10.37 W/m2
15:59 63.5 °F 55.4 °F 30.13 in Calm   1.0 mph 75% 0.00 in WeatherDisplay:10.37 W/m2
16:01 63.5 °F 55.4 °F 30.14 in ESE 1.2 mph   75% 0.00 in WeatherDisplay:10.37 W/m2 SCT
16:04 63.5 °F 55.4 °F 30.14 in Calm     75% 0.00 in WeatherDisplay:10.37 W/m2
16:06 63.5 °F 55.4 °F 30.14 in ESE 1.2 mph   75% 0.00 in WeatherDisplay:10.37 W/m2 SCT
16:09 63.5 °F 55.4 °F 30.13 in Calm   1.0 mph 75% 0.00 in WeatherDisplay:10.37 W/m2
16:12 63.5 °F 55.4 °F 30.14 in SSE 1.2 mph   75% 0.00 in WeatherDisplay:10.37 W/m2 SCT
16:14 63.5 °F 55.4 °F 30.13 in Calm   1.0 mph 75% 0.00 in WeatherDisplay:10.37 W/m2
16:17 63.5 °F 55.4 °F 30.13 in SW 2.3 mph 2.3 mph 75% 0.00 in WeatherDisplay:10.37 W/m2 SCT
16:19 63.4 °F 55.7 °F 30.13 in Calm   2.0 mph 76% 0.00 in WeatherDisplay:10.37 W/m2
16:22 63.2 °F 55.5 °F 30.13 in SW 2.3 mph   76% 0.00 in WeatherDisplay:10.37 W/m2 SCT
16:24 63.1 °F 55.8 °F 30.13 in Calm     77% 0.00 in WeatherDisplay:10.37 W/m2
16:27 63.0 °F 55.7 °F 30.13 in SW 2.3 mph 2.3 mph 77% 0.00 in WeatherDisplay:10.37 W/m2 SCT
16:29 62.8 °F 55.8 °F 30.13 in Calm   1.0 mph 78% 0.00 in WeatherDisplay:10.37 W/m2
16:34 62.6 °F 55.6 °F 30.14 in Calm     78% 0.00 in WeatherDisplay:10.37 W/m2
16:37 62.5 °F 55.5 °F 30.14 in SW 1.2 mph   78% 0.00 in WeatherDisplay:10.37 W/m2 SCT
16:39 62.3 °F 55.4 °F 30.14 in Calm     78% 0.00 in WeatherDisplay:10.37 W/m2
16:42 62.2 °F 55.6 °F 30.14 in Calm     79% 0.00 in WeatherDisplay:10.37 W/m2 SCT
16:44 62.1 °F 55.5 °F 30.14 in Calm     79% 0.00 in WeatherDisplay:10.37 W/m2
16:49 61.9 °F 55.3 °F 30.14 in Calm   1.0 mph 79% 0.00 in WeatherDisplay:10.37 W/m2
16:52 61.8 °F 55.2 °F 30.14 in Calm     79% 0.00 in WeatherDisplay:10.37 W/m2 SCT
16:54 61.7 °F 55.5 °F 30.14 in Calm     80% 0.00 in WeatherDisplay:10.37 W/m2
16:57 61.6 °F 55.4 °F 30.14 in Calm     80% 0.00 in WeatherDisplay:10.37 W/m2 SCT
16:59 61.4 °F 55.2 °F 30.14 in Calm   1.0 mph 80% 0.00 in WeatherDisplay:10.37 W/m2
17:02 61.3 °F 55.1 °F 30.14 in SSE 1.2 mph   80% 0.00 in WeatherDisplay:10.37 W/m2 BKN
17:04 61.2 °F 55.0 °F 30.14 in Calm   1.0 mph 80% 0.00 in WeatherDisplay:10.37 W/m2
17:07 61.1 °F 54.9 °F 30.14 in ESE 1.2 mph   80% 0.00 in WeatherDisplay:10.37 W/m2 BKN
17:09 61.0 °F 54.8 °F 30.14 in Calm     80% 0.00 in WeatherDisplay:10.37 W/m2
17:12 60.8 °F 54.6 °F 30.14 in Calm     80% 0.00 in WeatherDisplay:10.37 W/m2 BKN
17:14 60.7 °F 54.5 °F 30.14 in Calm     80% 0.00 in WeatherDisplay:10.37 W/m2
17:19 60.5 °F 54.3 °F 30.14 in Calm     80% 0.00 in WeatherDisplay:10.37 W/m2
17:23 60.3 °F 54.1 °F 30.14 in Calm     80% 0.00 in WeatherDisplay:10.37 W/m2 BKN
17:24 60.3 °F 54.1 °F 30.14 in Calm     80% 0.00 in WeatherDisplay:10.37 W/m2
17:28 60.1 °F 54.2 °F 30.14 in Calm     81% 0.00 in WeatherDisplay:10.37 W/m2 BKN
17:29 59.9 °F 53.7 °F 30.14 in Calm     80% 0.00 in WeatherDisplay:10.37 W/m2
17:34 59.6 °F 53.4 °F 30.14 in Calm     80% 0.00 in WeatherDisplay:10.37 W/m2
17:38 59.4 °F 53.6 °F 30.14 in Calm     81% 0.00 in WeatherDisplay:10.37 W/m2 BKN
17:39 59.3 °F 53.1 °F 30.14 in Calm     80% 0.00 in WeatherDisplay:10.37 W/m2
17:43 59.1 °F 53.3 °F 30.14 in Calm     81% 0.00 in WeatherDisplay:10.37 W/m2 BKN
17:44 59.0 °F 53.2 °F 30.14 in Calm     81% 0.00 in WeatherDisplay:10.37 W/m2
17:48 58.9 °F 53.1 °F 30.14 in Calm     81% 0.00 in WeatherDisplay:10.37 W/m2 BKN
17:49 58.8 °F 53.0 °F 30.14 in Calm     81% 0.00 in WeatherDisplay:10.37 W/m2
17:53 58.6 °F 52.8 °F 30.14 in Calm     81% 0.00 in WeatherDisplay:10.37 W/m2 BKN
17:54 58.5 °F 52.7 °F 30.14 in Calm     81% 0.00 in WeatherDisplay:10.37 W/m2
17:58 58.3 °F 52.8 °F 30.15 in Calm     82% 0.00 in WeatherDisplay:10.37 W/m2 BKN
17:59 58.2 °F 52.7 °F 30.14 in Calm     82% 0.00 in WeatherDisplay:10.37 W/m2
18:08 57.8 °F 52.7 °F 30.15 in Calm     83% 0.00 in WeatherDisplay:10.37 W/m2 BKN
18:09 57.8 °F 52.7 °F 30.15 in Calm     83% 0.00 in WeatherDisplay:10.37 W/m2
18:13 57.7 °F 52.6 °F 30.15 in Calm     83% 0.00 in WeatherDisplay:10.37 W/m2 BKN
18:18 57.4 °F 52.3 °F 30.15 in Calm     83% 0.00 in WeatherDisplay:10.37 W/m2 BKN
18:19 57.4 °F 52.3 °F 30.15 in Calm     83% 0.00 in WeatherDisplay:10.37 W/m2
18:23 57.1 °F 52.0 °F 30.15 in Calm     83% 0.00 in WeatherDisplay:10.37 W/m2 BKN
18:29 56.7 °F 51.9 °F 30.15 in Calm     84% 0.00 in WeatherDisplay:10.37 W/m2 BKN
18:34 56.5 °F 52.0 °F 30.15 in Calm     85% 0.00 in WeatherDisplay:10.37 W/m2 BKN
18:39 56.5 °F 52.4 °F 30.16 in Calm     86% 0.00 in WeatherDisplay:10.37 W/m2 BKN
18:44 56.5 °F 52.4 °F 30.16 in Calm     86% 0.00 in WeatherDisplay:10.37 W/m2 BKN
18:49 56.3 °F 52.2 °F 30.16 in Calm     86% 0.00 in WeatherDisplay:10.37 W/m2 BKN
18:54 56.0 °F 51.9 °F 30.16 in Calm     86% 0.00 in WeatherDisplay:10.37 W/m2
18:59 55.8 °F 51.7 °F 30.16 in Calm     86% 0.00 in WeatherDisplay:10.37 W/m2 BKN
19:04 55.6 °F 51.8 °F 30.16 in Calm     87% 0.00 in WeatherDisplay:10.37 W/m2 BKN
19:09 55.4 °F 51.9 °F 30.16 in Calm     88% 0.00 in WeatherDisplay:10.37 W/m2 BKN
19:19 54.9 °F 51.4 °F 30.16 in Calm     88% 0.00 in WeatherDisplay:10.37 W/m2
19:24 54.7 °F 51.2 °F 30.16 in Calm     88% 0.00 in WeatherDisplay:10.37 W/m2 BKN
19:29 54.5 °F 51.3 °F 30.17 in Calm     89% 0.00 in WeatherDisplay:10.37 W/m2
19:34 54.3 °F 51.1 °F 30.17 in Calm     89% 0.00 in WeatherDisplay:10.37 W/m2 BKN
19:39 54.1 °F 50.9 °F 30.17 in Calm     89% 0.00 in WeatherDisplay:10.37 W/m2
19:40 54.2 °F 51.0 °F 30.17 in Calm     89% 0.00 in WeatherDisplay:10.37 W/m2 BKN
19:44 53.9 °F 50.7 °F 30.17 in Calm     89% 0.00 in WeatherDisplay:10.37 W/m2
19:49 53.7 °F 50.8 °F 30.17 in Calm     90% 0.00 in WeatherDisplay:10.37 W/m2
19:54 53.6 °F 50.7 °F 30.17 in Calm     90% 0.00 in WeatherDisplay:10.37 W/m2
19:55 53.6 °F 50.7 °F 30.17 in Calm     90% 0.00 in WeatherDisplay:10.37 W/m2 BKN
19:59 53.5 °F 50.6 °F 30.17 in Calm     90% 0.00 in WeatherDisplay:10.37 W/m2
20:00 53.5 °F 50.6 °F 30.17 in Calm     90% 0.00 in WeatherDisplay:10.37 W/m2 BKN
20:05 53.3 °F 50.4 °F 30.17 in Calm     90% 0.00 in WeatherDisplay:10.37 W/m2 BKN
20:09 53.2 °F 50.3 °F 30.17 in Calm     90% 0.00 in WeatherDisplay:10.37 W/m2
20:14 52.9 °F 50.0 °F 30.17 in Calm     90% 0.00 in WeatherDisplay:10.37 W/m2
20:19 52.7 °F 49.8 °F 30.17 in Calm     90% 0.00 in WeatherDisplay:10.37 W/m2
20:24 52.6 °F 50.0 °F 30.18 in Calm     91% 0.00 in WeatherDisplay:10.37 W/m2
20:25 52.6 °F 50.0 °F 30.17 in Calm     91% 0.00 in WeatherDisplay:10.37 W/m2 BKN
20:29 52.5 °F 49.9 °F 30.18 in Calm     91% 0.00 in WeatherDisplay:10.37 W/m2
20:30 52.4 °F 49.8 °F 30.17 in Calm     91% 0.00 in WeatherDisplay:10.37 W/m2 BKN
20:35 52.4 °F 49.8 °F 30.18 in Calm     91% 0.00 in WeatherDisplay:10.37 W/m2 BKN
20:39 52.4 °F 49.8 °F 30.18 in Calm     91% 0.00 in WeatherDisplay:10.37 W/m2
20:40 52.4 °F 49.8 °F 30.18 in Calm     91% 0.00 in WeatherDisplay:10.37 W/m2 BKN
20:44 52.3 °F 49.8 °F 30.18 in Calm     91% 0.00 in WeatherDisplay:10.37 W/m2
20:46 52.3 °F 49.8 °F 30.18 in Calm     91% 0.00 in WeatherDisplay:10.37 W/m2 BKN
20:49 52.4 °F 50.1 °F 30.18 in Calm     92% 0.00 in WeatherDisplay:10.37 W/m2
20:51 52.4 °F 50.1 °F 30.18 in Calm     92% 0.00 in WeatherDisplay:10.37 W/m2 BKN
20:54 52.4 °F 50.1 °F 30.18 in Calm     92% 0.00 in WeatherDisplay:10.37 W/m2
20:56 52.4 °F 50.1 °F 30.18 in Calm     92% 0.00 in WeatherDisplay:10.37 W/m2 BKN
20:59 52.2 °F 49.7 °F 30.18 in Calm     91% 0.00 in WeatherDisplay:10.37 W/m2
21:04 52.1 °F 49.8 °F 30.18 in Calm     92% 0.00 in WeatherDisplay:10.37 W/m2
21:09 51.9 °F 49.4 °F 30.18 in Calm     91% 0.00 in WeatherDisplay:10.37 W/m2
21:14 51.8 °F 49.5 °F 30.17 in Calm     92% 0.00 in WeatherDisplay:10.37 W/m2
21:16 51.8 °F 49.5 °F 30.17 in Calm     92% 0.00 in WeatherDisplay:10.37 W/m2 SCT
21:19 51.7 °F 49.5 °F 30.17 in Calm     92% 0.00 in WeatherDisplay:10.37 W/m2
21:21 51.7 °F 49.5 °F 30.17 in Calm     92% 0.00 in WeatherDisplay:10.37 W/m2 SCT
21:29 51.5 °F 49.3 °F 30.17 in Calm     92% 0.00 in WeatherDisplay:10.37 W/m2
21:34 51.5 °F 49.3 °F 30.18 in Calm     92% 0.00 in WeatherDisplay:10.37 W/m2
21:36 51.4 °F 49.2 °F 30.18 in Calm     92% 0.00 in WeatherDisplay:10.37 W/m2 SCT
21:39 51.4 °F 49.2 °F 30.18 in Calm     92% 0.00 in WeatherDisplay:10.37 W/m2
21:41 51.4 °F 49.2 °F 30.18 in Calm     92% 0.00 in WeatherDisplay:10.37 W/m2 SCT
21:44 51.5 °F 49.3 °F 30.18 in Calm     92% 0.00 in WeatherDisplay:10.37 W/m2
21:49 51.4 °F 49.2 °F 30.17 in Calm     92% 0.00 in WeatherDisplay:10.37 W/m2
21:54 51.3 °F 49.1 °F 30.18 in Calm     92% 0.00 in WeatherDisplay:10.37 W/m2
21:57 51.3 °F 49.1 °F 30.18 in Calm     92% 0.00 in WeatherDisplay:10.37 W/m2 SCT
21:59 51.2 °F 49.0 °F 30.18 in Calm     92% 0.00 in WeatherDisplay:10.37 W/m2
22:02 51.2 °F 49.0 °F 30.18 in Calm     92% 0.00 in WeatherDisplay:10.37 W/m2 SCT
22:04 51.0 °F 48.8 °F 30.18 in Calm     92% 0.00 in WeatherDisplay:10.37 W/m2
22:07 51.0 °F 48.8 °F 30.18 in Calm     92% 0.00 in WeatherDisplay:10.37 W/m2 SCT
22:09 51.1 °F 48.9 °F 30.18 in Calm     92% 0.00 in WeatherDisplay:10.37 W/m2
22:13 51.1 °F 49.1 °F 30.18 in Calm     93% 0.00 in WeatherDisplay:10.37 W/m2 FEW
22:14 51.1 °F 49.1 °F 30.18 in Calm     93% 0.00 in WeatherDisplay:10.37 W/m2
22:19 51.0 °F 48.8 °F 30.18 in Calm     92% 0.00 in WeatherDisplay:10.37 W/m2
22:22 51.0 °F 48.8 °F 30.18 in Calm     92% 0.00 in WeatherDisplay:10.37 W/m2 FEW
22:24 51.0 °F 49.0 °F 30.18 in Calm     93% 0.00 in WeatherDisplay:10.37 W/m2
22:27 51.1 °F 49.1 °F 30.18 in Calm     93% 0.00 in WeatherDisplay:10.37 W/m2 FEW
22:29 51.2 °F 49.2 °F 30.18 in Calm     93% 0.00 in WeatherDisplay:10.37 W/m2
22:38 51.2 °F 49.2 °F 30.18 in Calm     93% 0.00 in WeatherDisplay:10.37 W/m2 FEW
22:39 51.1 °F 49.1 °F 30.18 in Calm     93% 0.00 in WeatherDisplay:10.37 W/m2
22:42 51.0 °F 49.0 °F 30.18 in Calm     93% 0.00 in WeatherDisplay:10.37 W/m2 FEW
22:44 50.9 °F 48.9 °F 30.18 in Calm     93% 0.00 in WeatherDisplay:10.37 W/m2
22:49 50.8 °F 48.6 °F 30.18 in Calm     92% 0.00 in WeatherDisplay:10.37 W/m2 FEW
22:54 50.7 °F 48.7 °F 30.18 in Calm     93% 0.00 in WeatherDisplay:10.37 W/m2
22:57 50.8 °F 48.8 °F 30.18 in Calm     93% 0.00 in WeatherDisplay:10.37 W/m2 FEW
22:59 50.8 °F 48.8 °F 30.18 in Calm     93% 0.00 in WeatherDisplay:10.37 W/m2
23:02 50.8 °F 48.8 °F 30.18 in Calm     93% 0.00 in WeatherDisplay:10.37 W/m2 FEW
23:07 50.6 °F 48.7 °F 30.18 in Calm     93% 0.00 in WeatherDisplay:10.37 W/m2 FEW
23:09 50.5 °F 48.6 °F 30.18 in Calm     93% 0.00 in WeatherDisplay:10.37 W/m2
23:12 50.4 °F 48.5 °F 30.18 in Calm     93% 0.00 in WeatherDisplay:10.37 W/m2 FEW
23:14 50.3 °F 48.4 °F 30.18 in Calm     93% 0.00 in WeatherDisplay:10.37 W/m2
23:17 50.2 °F 48.3 °F 30.18 in Calm     93% 0.00 in WeatherDisplay:10.37 W/m2 FEW
23:19 50.1 °F 48.2 °F 30.18 in Calm     93% 0.00 in WeatherDisplay:10.37 W/m2
23:22 50.0 °F 48.1 °F 30.18 in Calm     93% 0.00 in WeatherDisplay:10.37 W/m2 FEW
23:27 49.9 °F 48.0 °F 30.18 in Calm     93% 0.00 in WeatherDisplay:10.37 W/m2 FEW
23:29 49.9 °F 48.0 °F 30.19 in Calm     93% 0.00 in WeatherDisplay:10.37 W/m2
23:32 49.8 °F 47.9 °F 30.19 in Calm     93% 0.00 in WeatherDisplay:10.37 W/m2 FEW
23:37 49.7 °F 47.8 °F 30.19 in Calm     93% 0.00 in WeatherDisplay:10.37 W/m2 FEW
23:39 49.6 °F 47.7 °F 30.19 in Calm     93% 0.00 in WeatherDisplay:10.37 W/m2
23:42 49.5 °F 47.6 °F 30.19 in Calm     93% 0.00 in WeatherDisplay:10.37 W/m2 FEW
23:44 49.4 °F 47.5 °F 30.19 in Calm     93% 0.00 in WeatherDisplay:10.37 W/m2
23:48 49.4 °F 47.5 °F 30.19 in Calm     93% 0.00 in WeatherDisplay:10.37 W/m2 FEW
23:49 49.3 °F 47.4 °F 30.19 in Calm     93% 0.00 in WeatherDisplay:10.37 W/m2
23:53 49.3 °F 47.4 °F 30.19 in Calm     93% 0.00 in WeatherDisplay:10.37 W/m2 FEW
23:58 49.2 °F 47.3 °F 30.18 in Calm     93% 0.00 in WeatherDisplay:10.37 W/m2 FEW
23:59 49.2 °F 47.3 °F 30.18 in Calm     93% 0.00 in WeatherDisplay:10.37 W/m2
Piedmont Bend
Compliments of Weather Underground - 4 mb